createdAt,value
2019-04-06T00:02:21.274Z,8.73
2019-04-06T00:04:49.937Z,8.70
2019-04-06T00:07:18.604Z,9.20
2019-04-06T00:09:47.314Z,9.13
2019-04-06T00:12:16.088Z,8.70
2019-04-06T00:14:44.649Z,8.37
2019-04-06T00:17:13.218Z,9.00
2019-04-06T00:19:41.883Z,8.57
2019-04-06T00:22:10.578Z,7.87
2019-04-06T00:24:39.145Z,8.77
2019-04-06T00:27:07.863Z,8.37
2019-04-06T00:29:36.457Z,7.70
2019-04-06T00:32:06.734Z,8.33
2019-04-06T00:34:35.603Z,8.07
2019-04-06T00:37:04.321Z,8.80
2019-04-06T00:39:32.994Z,7.97
2019-04-06T00:42:02.359Z,9.23
2019-04-06T00:44:30.914Z,8.47
2019-04-06T00:46:59.657Z,8.40
2019-04-06T00:49:28.717Z,9.60
2019-04-06T00:51:57.377Z,8.67
2019-04-06T00:54:25.961Z,8.37
2019-04-06T00:56:54.561Z,10.10
2019-04-06T00:59:23.244Z,8.77
2019-04-06T01:01:51.986Z,9.60
2019-04-06T01:04:20.694Z,8.40
2019-04-06T01:06:49.377Z,8.70
2019-04-06T01:09:19.117Z,8.33
2019-04-06T01:11:47.741Z,9.10
2019-04-06T01:14:16.368Z,7.63
2019-04-06T01:16:45.037Z,8.43
2019-04-06T01:19:13.735Z,7.97
2019-04-06T01:21:42.354Z,8.33
2019-04-06T01:24:11.030Z,8.03
2019-04-06T01:26:39.692Z,8.43
2019-04-06T01:29:08.347Z,7.27
2019-04-06T01:31:36.940Z,7.73
2019-04-06T01:34:05.570Z,7.97
2019-04-06T01:36:34.225Z,8.37
2019-04-06T01:39:02.800Z,8.47
2019-04-06T01:41:31.358Z,7.93
2019-04-06T01:43:59.929Z,7.37
2019-04-06T01:46:28.494Z,7.47
2019-04-06T01:48:57.133Z,7.60
2019-04-06T01:51:25.804Z,8.33
2019-04-06T01:53:54.397Z,8.20
2019-04-06T01:56:22.986Z,8.13
2019-04-06T01:58:51.620Z,7.20
2019-04-06T02:01:24.875Z,7.83
2019-04-06T02:03:53.690Z,7.97
2019-04-06T02:06:22.430Z,9.00
2019-04-06T02:08:51.052Z,7.70
2019-04-06T02:11:19.663Z,7.03
2019-04-06T02:13:48.366Z,7.77
2019-04-06T02:16:16.954Z,7.63
2019-04-06T02:18:45.542Z,7.60
2019-04-06T02:21:14.177Z,7.13
2019-04-06T02:23:42.750Z,7.33
2019-04-06T02:26:11.321Z,7.03
2019-04-06T02:28:39.927Z,7.77
2019-04-06T02:31:10.188Z,7.10
2019-04-06T02:33:52.741Z,7.20
2019-04-06T02:36:26.087Z,7.78
2019-04-06T02:38:59.145Z,8.07
2019-04-06T02:41:47.589Z,6.93
2019-04-06T02:44:16.257Z,6.53
2019-04-06T02:46:44.801Z,7.07
2019-04-06T02:49:13.764Z,7.40
2019-04-06T02:51:42.289Z,6.50
2019-04-06T02:54:10.927Z,6.33
2019-04-06T02:56:46.630Z,6.33
2019-04-06T02:59:10.107Z,7.17
2019-04-06T03:01:39.286Z,6.93
2019-04-06T03:04:08.030Z,7.23
2019-04-06T03:06:36.816Z,6.97
2019-04-06T03:09:06.424Z,7.23
2019-04-06T03:11:35.251Z,6.40
2019-04-06T03:14:04.785Z,7.23
2019-04-06T03:16:33.522Z,7.27
2019-04-06T03:19:02.370Z,6.90
2019-04-06T03:21:31.011Z,6.97
2019-04-06T03:23:59.705Z,6.60
2019-04-06T03:26:28.484Z,6.67
2019-04-06T03:28:58.533Z,7.63
2019-04-06T03:31:28.132Z,7.37
2019-04-06T03:33:57.631Z,7.00
2019-04-06T03:36:26.690Z,7.17
2019-04-06T03:38:55.364Z,6.10
2019-04-06T03:41:24.044Z,6.40
2019-04-06T03:43:52.647Z,6.73
2019-04-06T03:46:21.250Z,6.50
2019-04-06T03:48:49.894Z,6.50
2019-04-06T03:51:18.815Z,6.90
2019-04-06T03:53:47.457Z,7.00
2019-04-06T03:56:16.099Z,8.47
2019-04-06T03:58:44.734Z,7.60
2019-04-06T04:01:13.478Z,6.67
2019-04-06T04:03:42.266Z,6.17
2019-04-06T04:06:11.060Z,6.90
2019-04-06T04:08:39.916Z,7.03
2019-04-06T04:11:08.483Z,7.13
2019-04-06T04:13:37.285Z,7.77
2019-04-06T04:16:05.866Z,8.40
2019-04-06T04:18:34.743Z,7.03
2019-04-06T04:21:03.546Z,6.53
2019-04-06T04:23:32.185Z,7.83
2019-04-06T04:26:00.755Z,6.57
2019-04-06T04:28:29.700Z,6.60
2019-04-06T04:30:58.244Z,6.63
2019-04-06T04:33:26.882Z,6.93
2019-04-06T04:35:55.738Z,7.40
2019-04-06T04:38:25.092Z,7.53
2019-04-06T04:40:53.892Z,6.70
2019-04-06T04:43:22.493Z,6.53
2019-04-06T04:45:51.150Z,6.80
2019-04-06T04:48:19.918Z,6.20
2019-04-06T04:50:48.610Z,6.63
2019-04-06T04:53:17.180Z,6.67
2019-04-06T04:55:45.745Z,6.57
2019-04-06T04:58:14.436Z,7.33
2019-04-06T05:00:42.985Z,6.73
2019-04-06T05:03:11.624Z,6.97
2019-04-06T05:05:40.235Z,7.40
2019-04-06T05:08:08.826Z,6.57
2019-04-06T05:10:37.502Z,6.27
2019-04-06T05:13:06.277Z,6.57
2019-04-06T05:16:03.688Z,6.10
2019-04-06T05:18:32.384Z,6.03
2019-04-06T05:21:01.091Z,6.87
2019-04-06T05:23:29.753Z,6.77
2019-04-06T05:25:58.803Z,6.70
2019-04-06T05:28:27.862Z,7.23
2019-04-06T05:30:56.765Z,6.70
2019-04-06T05:33:25.519Z,6.70
2019-04-06T05:35:54.986Z,6.37
2019-04-06T05:38:24.013Z,6.53
2019-04-06T05:40:52.690Z,6.37
2019-04-06T05:43:21.328Z,6.77
2019-04-06T05:45:49.973Z,7.53
2019-04-06T05:48:18.898Z,6.73
2019-04-06T05:50:47.554Z,7.73
2019-04-06T05:53:16.147Z,6.40
2019-04-06T05:55:44.951Z,7.17
2019-04-06T05:58:13.551Z,7.33
2019-04-06T06:00:42.222Z,7.30
2019-04-06T06:03:11.446Z,6.60
2019-04-06T06:05:41.180Z,6.70
2019-04-06T06:08:10.290Z,7.43
2019-04-06T06:10:39.138Z,7.03
2019-04-06T06:13:07.850Z,7.00
2019-04-06T06:15:36.546Z,7.27
2019-04-06T06:18:05.586Z,8.43
2019-04-06T06:20:34.545Z,8.03
2019-04-06T06:23:03.571Z,7.83
2019-04-06T06:25:32.640Z,8.60
2019-04-06T06:28:01.400Z,8.10
2019-04-06T06:30:30.126Z,8.40
2019-04-06T06:32:58.981Z,8.53
2019-04-06T06:35:27.762Z,8.93
2019-04-06T06:37:56.356Z,8.73
2019-04-06T06:40:24.975Z,8.90
2019-04-06T06:42:53.791Z,8.50
2019-04-06T06:45:22.556Z,8.23
2019-04-06T06:47:51.137Z,9.67
2019-04-06T06:50:20.283Z,7.40
2019-04-06T06:52:49.104Z,9.20
2019-04-06T06:55:18.730Z,8.90
2019-04-06T06:57:49.154Z,8.73
2019-04-06T07:00:18.099Z,10.10
2019-04-06T07:02:47.128Z,9.63
2019-04-06T07:05:16.083Z,9.90
2019-04-06T07:07:44.782Z,8.50
2019-04-06T07:10:15.365Z,10.70
2019-04-06T07:12:44.015Z,9.53
2019-04-06T07:15:13.666Z,9.23
2019-04-06T07:17:42.607Z,9.73
2019-04-06T07:20:11.750Z,9.77
2019-04-06T07:22:40.548Z,10.37
2019-04-06T07:25:09.467Z,9.23
2019-04-06T07:27:38.075Z,10.40
2019-04-06T07:30:08.559Z,10.20
2019-04-06T07:32:37.197Z,10.00
2019-04-06T07:35:07.598Z,8.73
2019-04-06T07:37:36.585Z,10.07
2019-04-06T07:40:10.421Z,10.33
2019-04-06T07:42:39.058Z,9.90
2019-04-06T07:45:09.429Z,10.17
2019-04-06T07:47:38.090Z,10.07
2019-04-06T07:50:08.038Z,9.70
2019-04-06T07:52:37.024Z,9.77
2019-04-06T07:55:08.019Z,10.33
2019-04-06T07:57:37.782Z,9.70
2019-04-06T08:00:10.458Z,10.30
2019-04-06T08:02:39.532Z,10.35
2019-04-06T08:05:08.577Z,9.47
2019-04-06T08:07:37.260Z,9.40
2019-04-06T08:10:06.600Z,12.07
2019-04-06T08:12:35.433Z,11.50
2019-04-06T08:15:06.438Z,12.37
2019-04-06T08:17:35.163Z,11.17
2019-04-06T08:20:06.598Z,10.97
2019-04-06T08:22:35.189Z,10.78
2019-04-06T08:25:05.702Z,10.72
2019-04-06T08:27:34.529Z,12.05
2019-04-06T08:30:04.678Z,10.97
2019-04-06T08:32:33.313Z,10.82
2019-04-06T08:35:02.034Z,11.20
2019-04-06T08:37:31.055Z,12.93
2019-04-06T08:39:59.604Z,12.20
2019-04-06T08:42:28.222Z,11.55
2019-04-06T08:44:57.201Z,11.78
2019-04-06T08:47:25.760Z,12.00
2019-04-06T08:49:54.458Z,10.82
2019-04-06T08:52:23.278Z,12.00
2019-04-06T08:54:52.107Z,11.80
2019-04-06T08:57:22.571Z,11.40
2019-04-06T08:59:51.000Z,12.05
2019-04-06T09:02:19.650Z,11.65
2019-04-06T09:04:48.699Z,11.55
2019-04-06T09:07:17.814Z,13.15
2019-04-06T09:09:46.470Z,11.45
2019-04-06T09:12:15.407Z,12.00
2019-04-06T09:14:44.189Z,11.35
2019-04-06T09:17:13.038Z,10.95
2019-04-06T09:19:41.610Z,11.97
2019-04-06T09:22:10.461Z,11.65
2019-04-06T09:24:39.297Z,12.03
2019-04-06T09:27:08.109Z,11.68
2019-04-06T09:29:36.883Z,12.23
2019-04-06T09:32:05.868Z,11.38
2019-04-06T09:34:35.228Z,12.30
2019-04-06T09:37:04.360Z,13.20
2019-04-06T09:39:33.098Z,12.70
2019-04-06T09:42:02.005Z,14.28
2019-04-06T09:44:48.840Z,14.60
2019-04-06T09:47:21.935Z,13.95
2019-04-06T09:49:56.033Z,14.58
2019-04-06T09:52:26.303Z,13.93
2019-04-06T09:54:56.542Z,14.18
2019-04-06T09:57:36.352Z,15.55
2019-04-06T10:00:09.613Z,13.38
2019-04-06T10:02:40.060Z,14.70
2019-04-06T10:05:13.679Z,13.65
2019-04-06T10:08:04.372Z,14.40
2019-04-06T10:10:51.399Z,16.07
2019-04-06T10:13:33.682Z,15.80
2019-04-06T10:16:20.349Z,16.35
2019-04-06T10:18:51.071Z,15.25
2019-04-06T10:21:21.839Z,14.78
2019-04-06T10:23:58.625Z,14.10
2019-04-06T10:26:31.683Z,11.18
2019-04-06T10:29:05.447Z,12.45
2019-04-06T10:31:52.009Z,11.33
2019-04-06T10:34:27.973Z,12.28
2019-04-06T10:37:16.646Z,12.53
2019-04-06T10:39:55.973Z,12.65
2019-04-06T10:42:28.545Z,12.00
2019-04-06T10:45:07.441Z,12.58
2019-04-06T10:47:43.756Z,12.18
2019-04-06T10:50:31.798Z,11.63
2019-04-06T10:53:07.994Z,11.33
2019-04-06T10:55:54.222Z,12.88
2019-04-06T10:58:33.467Z,11.90
2019-04-06T11:01:20.619Z,11.40
2019-04-06T11:04:07.694Z,11.30
2019-04-06T11:06:40.924Z,10.58
2019-04-06T11:09:27.411Z,11.55
2019-04-06T11:12:00.654Z,11.08
2019-04-06T11:14:42.663Z,10.98
2019-04-06T11:17:18.659Z,10.75
2019-04-06T11:19:51.840Z,11.00
2019-04-06T11:22:22.242Z,11.12
2019-04-06T11:24:52.719Z,11.48
2019-04-06T11:27:39.313Z,10.98
2019-04-06T11:30:14.020Z,12.78
2019-04-06T11:32:43.070Z,11.57
2019-04-06T11:35:16.337Z,12.15
2019-04-06T11:37:58.561Z,13.18
2019-04-06T11:43:14.816Z,11.43
2019-04-06T11:45:54.147Z,10.95
2019-04-06T11:48:30.576Z,12.05
2019-04-06T11:51:03.574Z,11.45
2019-04-06T11:53:50.007Z,11.30
2019-04-06T11:56:36.523Z,12.73
2019-04-06T11:59:07.006Z,12.75
2019-04-06T12:01:53.200Z,13.68
2019-04-06T12:04:38.158Z,12.53
2019-04-06T12:07:17.223Z,12.23
2019-04-06T12:09:47.501Z,12.10
2019-04-06T12:12:34.426Z,12.00
2019-04-06T12:15:11.035Z,12.70
2019-04-06T12:17:50.410Z,12.05
2019-04-06T12:20:39.346Z,13.32
2019-04-06T12:23:13.065Z,12.40
2019-04-06T12:25:56.022Z,14.15
2019-04-06T12:28:31.960Z,15.38
2019-04-06T12:31:07.983Z,13.85
2019-04-06T12:33:54.418Z,13.80
2019-04-06T12:36:25.086Z,13.08
2019-04-06T12:38:58.437Z,12.40
2019-04-06T12:41:34.538Z,13.32
2019-04-06T12:44:20.133Z,11.57
2019-04-06T12:47:07.302Z,10.68
2019-04-06T12:49:47.254Z,11.60
2019-04-06T12:52:17.983Z,11.53
2019-04-06T12:54:51.803Z,12.07
2019-04-06T12:57:38.559Z,11.63
2019-04-06T13:00:19.291Z,12.05
2019-04-06T13:02:49.670Z,11.40
2019-04-06T13:05:36.069Z,12.68
2019-04-06T13:08:18.555Z,11.30
2019-04-06T13:11:05.416Z,10.82
2019-04-06T13:13:42.070Z,11.45
2019-04-06T13:16:13.170Z,11.85
2019-04-06T13:18:44.000Z,11.65
2019-04-06T13:21:20.707Z,12.37
2019-04-06T13:24:06.646Z,11.97
2019-04-06T13:26:42.917Z,12.40
2019-04-06T13:29:29.945Z,12.05
2019-04-06T13:32:03.021Z,10.88
2019-04-06T13:34:33.285Z,11.40
2019-04-06T13:37:22.088Z,17.05
2019-04-06T13:39:52.861Z,12.63
2019-04-06T13:42:31.882Z,11.20
2019-04-06T13:45:05.112Z,11.22
2019-04-06T13:47:35.355Z,11.85
2019-04-06T13:50:26.378Z,11.68
2019-04-06T13:53:02.994Z,12.05
2019-04-06T13:55:41.988Z,11.78
2019-04-06T13:58:12.338Z,12.13
2019-04-06T14:00:49.010Z,13.20
2019-04-06T14:03:34.911Z,12.10
2019-04-06T14:06:14.310Z,10.78
2019-04-06T14:08:53.479Z,10.60
2019-04-06T14:11:23.788Z,11.80
2019-04-06T14:13:57.459Z,12.58
2019-04-06T14:16:30.876Z,11.33
2019-04-06T14:19:07.404Z,11.45
2019-04-06T14:21:43.574Z,12.45
2019-04-06T14:24:20.034Z,12.73
2019-04-06T14:27:06.709Z,10.88
2019-04-06T14:29:43.569Z,12.45
2019-04-06T14:32:23.473Z,12.05
2019-04-06T14:35:11.816Z,11.18
2019-04-06T14:37:50.787Z,11.05
2019-04-06T14:40:37.119Z,11.00
2019-04-06T14:43:10.098Z,11.38
2019-04-06T14:45:42.792Z,10.50
2019-04-06T14:48:28.130Z,10.95
2019-04-06T14:50:58.441Z,10.68
2019-04-06T14:53:45.074Z,12.58
2019-04-06T14:56:15.396Z,10.70
2019-04-06T14:59:03.727Z,11.10
2019-04-06T15:01:57.899Z,10.98
2019-04-06T15:04:41.185Z,11.08
2019-04-06T15:07:17.361Z,11.35
2019-04-06T15:09:47.582Z,11.60
2019-04-06T15:12:32.826Z,11.38
2019-04-06T15:15:12.640Z,11.65
2019-04-06T15:17:55.450Z,11.43
2019-04-06T15:20:26.117Z,14.90
2019-04-06T15:22:56.678Z,14.28
2019-04-06T15:25:45.578Z,12.58
2019-04-06T15:28:34.257Z,11.43
2019-04-06T15:31:04.732Z,11.33
2019-04-06T15:33:44.821Z,11.70
2019-04-06T15:36:18.346Z,11.68
2019-04-06T15:38:48.911Z,11.00
2019-04-06T15:41:31.107Z,10.72
2019-04-06T15:44:19.734Z,12.35
2019-04-06T15:46:56.461Z,12.35
2019-04-06T15:49:26.894Z,12.78
2019-04-06T15:52:15.725Z,14.43
2019-04-06T15:55:01.106Z,13.32
2019-04-06T15:57:32.063Z,11.40
2019-04-06T16:00:18.904Z,12.45
2019-04-06T16:02:58.226Z,14.18
2019-04-06T16:05:37.808Z,12.75
2019-04-06T16:08:15.123Z,12.18
2019-04-06T16:10:48.365Z,12.45
2019-04-06T16:13:34.367Z,11.18
2019-04-06T16:16:21.242Z,11.22
2019-04-06T16:19:08.136Z,11.57
2019-04-06T16:21:38.844Z,14.18
2019-04-06T16:24:09.711Z,13.28
2019-04-06T16:26:51.825Z,12.15
2019-04-06T16:29:38.789Z,14.03
2019-04-06T16:32:15.127Z,13.45
2019-04-06T16:35:01.334Z,13.45
2019-04-06T16:37:40.577Z,13.60
2019-04-06T16:40:26.173Z,12.37
2019-04-06T16:43:02.884Z,13.45
2019-04-06T16:45:45.438Z,11.95
2019-04-06T16:48:19.817Z,12.40
2019-04-06T16:50:50.015Z,12.23
2019-04-06T16:53:32.815Z,11.00
2019-04-06T16:58:55.328Z,11.25
2019-04-06T17:01:43.758Z,11.35
2019-04-06T17:04:20.392Z,11.70
2019-04-06T17:06:51.138Z,11.83
2019-04-06T17:09:22.060Z,12.88
2019-04-06T17:12:01.510Z,12.53
2019-04-06T17:14:44.065Z,14.60
2019-04-06T17:17:29.482Z,12.00
2019-04-06T17:20:05.667Z,12.28
2019-04-06T17:22:52.681Z,13.45
2019-04-06T17:25:29.887Z,13.50
2019-04-06T17:28:11.418Z,13.98
2019-04-06T17:30:46.323Z,14.68
2019-04-06T17:33:22.575Z,13.85
2019-04-06T17:36:05.230Z,13.88
2019-04-06T17:38:52.206Z,15.78
2019-04-06T17:41:22.729Z,13.05
2019-04-06T17:43:55.962Z,15.08
2019-04-06T17:46:29.002Z,14.85
2019-04-06T17:49:16.232Z,14.95
2019-04-06T17:52:01.884Z,16.17
2019-04-06T17:54:35.350Z,15.60
2019-04-06T17:57:09.553Z,14.15
2019-04-06T17:59:56.316Z,12.90
2019-04-06T18:02:47.369Z,14.15
2019-04-06T18:05:12.442Z,13.90
2019-04-06T20:44:05.438Z,8.83
2019-04-06T20:46:34.486Z,8.97
2019-04-06T20:49:03.226Z,9.43
2019-04-06T20:51:31.790Z,8.73
2019-04-06T20:54:00.869Z,7.90
2019-04-06T20:56:29.836Z,8.13
2019-04-06T20:58:58.722Z,8.73
2019-04-06T21:01:27.704Z,9.60
2019-04-06T21:04:01.112Z,8.87
2019-04-06T21:06:26.859Z,8.70
2019-04-06T21:08:56.106Z,9.47
2019-04-06T21:11:25.405Z,8.90
2019-04-06T21:13:55.170Z,9.97
2019-04-06T21:16:23.939Z,9.87
2019-04-06T21:18:52.522Z,9.80
2019-04-06T21:21:21.095Z,9.67
2019-04-06T21:23:49.836Z,9.80
2019-04-06T21:26:18.434Z,10.13
2019-04-06T21:28:48.832Z,10.03
2019-04-06T21:31:17.710Z,10.73
2019-04-06T21:33:46.750Z,10.10
2019-04-06T21:36:16.282Z,9.80
2019-04-06T21:38:45.572Z,9.77
2019-04-06T21:41:14.965Z,10.00
2019-04-06T21:43:43.780Z,9.27
2019-04-06T21:46:14.322Z,10.57
2019-04-06T21:48:42.843Z,10.07
2019-04-06T21:51:11.492Z,10.47
2019-04-06T21:53:40.244Z,10.13
2019-04-06T21:56:09.193Z,11.07
2019-04-06T21:58:38.093Z,9.60
2019-04-06T22:01:08.382Z,11.07
2019-04-06T22:03:37.020Z,11.37
2019-04-06T22:06:06.381Z,11.70
2019-04-06T22:08:35.149Z,11.60
2019-04-06T22:11:04.432Z,13.10
2019-04-06T22:13:33.233Z,12.17
2019-04-06T22:16:02.273Z,11.67
2019-04-06T22:18:30.997Z,11.53
2019-04-06T22:20:59.645Z,11.53
2019-04-06T22:23:40.417Z,11.27
2019-04-06T22:25:58.592Z,12.23
2019-04-06T22:28:27.205Z,11.57
2019-04-06T22:30:56.261Z,11.63
2019-04-06T22:33:25.122Z,11.63
2019-04-06T22:35:54.152Z,12.17
2019-04-06T22:38:22.854Z,12.17
2019-04-06T22:40:52.015Z,12.23
2019-04-06T22:43:20.797Z,11.33
2019-04-06T22:45:49.366Z,11.97
2019-04-06T22:48:18.507Z,12.47
2019-04-06T22:50:47.470Z,12.27
2019-04-06T22:53:16.578Z,12.90
2019-04-06T22:55:45.866Z,13.43
2019-04-06T22:58:14.598Z,13.47
2019-04-06T23:00:48.613Z,12.23
2019-04-06T23:03:27.645Z,11.30
2019-04-06T23:06:07.409Z,12.30
2019-04-06T23:08:36.451Z,13.07
2019-04-06T23:11:06.287Z,13.13
2019-04-06T23:13:35.182Z,12.53
2019-04-06T23:16:04.700Z,12.60
2019-04-06T23:18:33.433Z,12.33
2019-04-06T23:21:02.968Z,12.93
2019-04-06T23:23:31.767Z,14.00
2019-04-06T23:26:00.974Z,14.77
2019-04-06T23:28:29.749Z,12.93
2019-04-06T23:30:58.656Z,14.00
2019-04-06T23:33:28.019Z,13.53
2019-04-06T23:35:57.243Z,12.47
2019-04-06T23:38:26.032Z,13.53
2019-04-06T23:40:54.864Z,13.63
2019-04-06T23:43:23.509Z,13.07
2019-04-06T23:45:52.633Z,12.80
2019-04-06T23:48:21.943Z,12.73
2019-04-06T23:50:50.690Z,14.17
2019-04-06T23:53:19.374Z,14.00
2019-04-06T23:55:48.002Z,13.63
2019-04-06T23:58:16.881Z,14.37
